Mabi IV — CRFG3 — position and weather

sailwx.info

Track history (hours):
 
Tides and Currents Weather Stations Pressure Air Temp Water Temp Dewpoint Dewpoint Depression Visibility Wind Speed Wind Dir Waves Ship Positions

Mabi IV

Last reported at 2018-Jun-23 03:39 UTC. Time now 2018-Jun-23 06:16 UTC.
Position N 38°41' W 009°13'.

Length 12 m.

Type: Sailing vessel. MMSI: 263941790.

Date/timePositionNaut miles runAvg speedWind from/ knotsBaromVisibWave heightAir tempDewpointWater temp
2018-Jun-23 03:39N 38°41' W 009°13'0 1.1
2018-Jun-23 03:30N 38°41' W 009°14'1 1.1
2018-Jun-23 02:45N 38°42' W 009°15'0 0.9
2018-Jun-23 02:19N 38°42' W 009°15'4 0.6
2018-Jun-22 18:54N 38°42' W 009°09'2 0.7
2018-Jun-22 15:51N 38°41' W 009°12'2 4.9
2018-Jun-22 15:27N 38°42' W 009°15'  
2018-Jun-18 16:02N 38°41' W 009°11'1 0.1
2018-Jun-17 17:03N 38°42' W 009°10'1 4.6
2018-Jun-17 16:51N 38°41' W 009°11'2 5.4
2018-Jun-17 16:30N 38°41' W 009°13'1 0.3
2018-Jun-17 14:12N 38°42' W 009°12'1 0.5
2018-Jun-17 12:50N 38°42' W 009°11'2 4.2
2018-Jun-17 12:26N 38°41' W 009°14'2 3.6
2018-Jun-17 11:59N 38°42' W 009°16'1 0.7
2018-Jun-17 10:07N 38°41' W 009°17'0 1.9
2018-Jun-17 09:56N 38°41' W 009°17'5 0.4
2018-Jun-16 18:45N 38°42' W 009°10'0 0.1
2018-Jun-16 16:55N 38°42' W 009°10'5 2.7
2018-Jun-16 15:09N 38°42' W 009°16'1 5.1
2018-Jun-16 14:54N 38°41' W 009°15'3 1.7
2018-Jun-16 13:16N 38°41' W 009°11'2 6.3
2018-Jun-16 12:57N 38°41' W 009°14'2 1.0
2018-Jun-16 11:05N 38°41' W 009°16'2 8.2
2018-Jun-16 10:53N 38°41' W 009°14'2 0.1
2018-Jun-15 17:00N 38°41' W 009°11'2 4.6
2018-Jun-15 16:28N 38°41' W 009°14'2 1.6
2018-Jun-15 15:18N 38°42' W 009°16'1 4.4
2018-Jun-15 14:59N 38°41' W 009°15'2 3.1
2018-Jun-15 14:29N 38°41' W 009°13'  
Track history (hours):
 
Tides and Currents Weather Stations Pressure Air Temp Water Temp Dewpoint Dewpoint Depression Visibility Wind Speed Wind Dir Waves Ship Positions

Mabi IV

Last reported at 2018-Jun-23 03:39 UTC. Time now 2018-Jun-23 06:16 UTC.
Position N 38°41' W 009°13'.

Length 12 m.

Type: Sailing vessel. MMSI: 263941790.

Date/timePositionNaut miles runAvg speedWind from/ knotsBaromVisibWave heightAir tempDewpointWater temp
2018-Jun-23 03:39N 38°41' W 009°13'0 1.1
2018-Jun-23 03:30N 38°41' W 009°14'1 1.1
2018-Jun-23 02:45N 38°42' W 009°15'0 0.9
2018-Jun-23 02:19N 38°42' W 009°15'4 0.6
2018-Jun-22 18:54N 38°42' W 009°09'2 0.7
2018-Jun-22 15:51N 38°41' W 009°12'2 4.9
2018-Jun-22 15:27N 38°42' W 009°15'  
2018-Jun-18 16:02N 38°41' W 009°11'1 0.1
2018-Jun-17 17:03N 38°42' W 009°10'1 4.6
2018-Jun-17 16:51N 38°41' W 009°11'2 5.4
2018-Jun-17 16:30N 38°41' W 009°13'1 0.3
2018-Jun-17 14:12N 38°42' W 009°12'1 0.5
2018-Jun-17 12:50N 38°42' W 009°11'2 4.2
2018-Jun-17 12:26N 38°41' W 009°14'2 3.6
2018-Jun-17 11:59N 38°42' W 009°16'1 0.7
2018-Jun-17 10:07N 38°41' W 009°17'0 1.9
2018-Jun-17 09:56N 38°41' W 009°17'5 0.4
2018-Jun-16 18:45N 38°42' W 009°10'0 0.1
2018-Jun-16 16:55N 38°42' W 009°10'5 2.7
2018-Jun-16 15:09N 38°42' W 009°16'1 5.1
2018-Jun-16 14:54N 38°41' W 009°15'3 1.7
2018-Jun-16 13:16N 38°41' W 009°11'2 6.3
2018-Jun-16 12:57N 38°41' W 009°14'2 1.0
2018-Jun-16 11:05N 38°41' W 009°16'2 8.2
2018-Jun-16 10:53N 38°41' W 009°14'2 0.1
2018-Jun-15 17:00N 38°41' W 009°11'2 4.6
2018-Jun-15 16:28N 38°41' W 009°14'2 1.6
2018-Jun-15 15:18N 38°42' W 009°16'1 4.4
2018-Jun-15 14:59N 38°41' W 009°15'2 3.1
2018-Jun-15 14:29N 38°41' W 009°13'  

Dump ship's entire track history